Time;durP1;ratioP1;P1;durP2;ratioP2;P2;SDS_P1;SDS_P2;PMS_P1;PMS_P2;Temp;Humidity;BMP_temperature;BMP_pressure;BME280_temperature;BME280_humidity;BME280_pressure;Samples;Min_cycle;Max_cycle;Signal;HPM_P1;HPM_P2
2021/12/13 00:02:23;;;;;;;364.02;64.90;;;;;;;;;;5071046;28;20320;-65
2021/12/13 00:04:57;;;;;;;361.70;63.90;;;;;;;;;;5071141;28;20204;-65
2021/12/13 00:07:25;;;;;;;364.08;64.70;;;;;;;;;;5071044;28;20208;-66
2021/12/13 00:09:55;;;;;;;360.17;67.30;;;;;;;;;;5070364;28;20240;-68
2021/12/13 00:12:25;;;;;;;355.05;63.28;;;;;;;;;;5070838;28;20243;-68
2021/12/13 00:14:53;;;;;;;357.70;62.42;;;;;;;;;;5070784;28;20242;-69
2021/12/13 00:17:23;;;;;;;357.48;63.83;;;;;;;;;;5070875;28;20223;-65
2021/12/13 00:19:59;;;;;;;362.08;65.03;;;;;;;;;;5070611;28;20244;-65
2021/12/13 00:22:27;;;;;;;352.63;61.45;;;;;;;;;;5070763;28;20204;-66
2021/12/13 00:24:55;;;;;;;358.15;65.00;;;;;;;;;;5070594;28;20208;-67
2021/12/13 00:27:27;;;;;;;357.60;63.55;;;;;;;;;;5070880;28;20334;-65
2021/12/13 00:29:57;;;;;;;356.95;66.05;;;;;;;;;;5070340;28;20239;-67
2021/12/13 00:32:28;;;;;;;360.27;63.47;;;;;;;;;;5070642;28;20226;-66
2021/12/13 00:34:58;;;;;;;352.35;62.45;;;;;;;;;;5070853;28;20262;-65
2021/12/13 00:37:31;;;;;;;356.52;63.65;;;;;;;;;;5070396;28;20696;-66
2021/12/13 00:40:00;;;;;;;354.58;63.05;;;;;;;;;;5070298;28;20208;-66
2021/12/13 00:42:33;;;;;;;354.00;62.55;;;;;;;;;;5070609;28;20214;-65
2021/12/13 00:45:05;;;;;;;355.23;62.22;;;;;;;;;;5070712;28;20208;-65
2021/12/13 00:47:34;;;;;;;358.15;63.63;;;;;;;;;;5070497;28;20215;-65
2021/12/13 00:50:04;;;;;;;360.50;64.60;;;;;;;;;;5071133;28;20224;-66
2021/12/13 00:52:32;;;;;;;359.88;63.70;;;;;;;;;;5074490;28;20205;-66
2021/12/13 00:55:01;;;;;;;356.02;63.92;;;;;;;;;;5074504;28;20236;-65
2021/12/13 00:57:39;;;;;;;354.92;63.53;;;;;;;;;;5074257;28;20209;-65
2021/12/13 01:00:09;;;;;;;359.70;64.50;;;;;;;;;;5074211;28;20684;-65
2021/12/13 01:02:40;;;;;;;361.40;64.13;;;;;;;;;;5074318;28;20231;-65
2021/12/13 01:05:11;;;;;;;353.23;63.50;;;;;;;;;;5074333;28;20204;-65
2021/12/13 01:07:57;;;;;;;357.52;64.82;;;;;;;;;;5073983;28;20208;-66
2021/12/13 01:10:48;;;;;;;357.63;64.30;;;;;;;;;;5074105;28;20244;-65
2021/12/13 01:13:19;;;;;;;359.13;63.40;;;;;;;;;;5074075;28;20633;-65
2021/12/13 01:15:50;;;;;;;352.90;62.83;;;;;;;;;;5074215;28;20314;-65
2021/12/13 01:18:27;;;;;;;360.52;64.50;;;;;;;;;;5074124;28;20579;-65
2021/12/13 01:21:00;;;;;;;369.08;66.63;;;;;;;;;;5074174;28;20238;-67
2021/12/13 01:23:40;;;;;;;360.75;64.85;;;;;;;;;;5073765;28;20224;-65
2021/12/13 01:26:27;;;;;;;354.15;62.15;;;;;;;;;;5073949;28;20216;-65
2021/12/13 01:28:57;;;;;;;358.38;64.88;;;;;;;;;;5073879;28;20234;-66
2021/12/13 01:31:27;;;;;;;357.35;65.50;;;;;;;;;;5074049;28;20738;-66
2021/12/13 01:33:55;;;;;;;367.55;70.95;;;;;;;;;;5073782;28;20596;-66
2021/12/13 01:36:26;;;;;;;365.42;65.00;;;;;;;;;;5075560;28;20267;-65
2021/12/13 01:38:57;;;;;;;356.05;65.10;;;;;;;;;;5073709;28;20281;-66
2021/12/13 01:41:25;;;;;;;353.58;62.78;;;;;;;;;;5073621;28;20208;-65
2021/12/13 01:43:54;;;;;;;364.42;68.97;;;;;;;;;;5073242;28;20208;-65
2021/12/13 01:46:25;;;;;;;359.63;64.35;;;;;;;;;;5073629;28;20212;-65
2021/12/13 01:48:53;;;;;;;359.67;64.05;;;;;;;;;;5073642;28;20228;-64
2021/12/13 01:51:23;;;;;;;359.52;65.22;;;;;;;;;;5073382;28;20239;-65
2021/12/13 01:53:53;;;;;;;361.27;68.38;;;;;;;;;;5073221;28;20195;-65
2021/12/13 01:56:39;;;;;;;360.48;65.72;;;;;;;;;;5073350;28;20600;-66
2021/12/13 01:59:26;;;;;;;366.70;66.43;;;;;;;;;;5073912;28;20212;-66
2021/12/13 02:01:55;;;;;;;363.02;67.25;;;;;;;;;;5071825;28;20236;-67
2021/12/13 02:04:23;;;;;;;358.45;63.25;;;;;;;;;;5073044;28;20296;-65
2021/12/13 02:06:52;;;;;;;359.50;66.03;;;;;;;;;;5072814;28;21186;-65
2021/12/13 02:09:21;;;;;;;363.60;65.50;;;;;;;;;;5073063;28;20251;-65
2021/12/13 02:11:50;;;;;;;371.25;69.78;;;;;;;;;;5072723;28;20205;-65
2021/12/13 02:14:24;;;;;;;371.00;67.55;;;;;;;;;;5073074;28;20232;-65
2021/12/13 02:17:00;;;;;;;362.63;67.07;;;;;;;;;;5073018;28;20205;-65
2021/12/13 02:19:35;;;;;;;371.08;66.38;;;;;;;;;;5072886;28;20211;-64
2021/12/13 02:22:14;;;;;;;356.40;64.47;;;;;;;;;;5073006;28;20230;-65
2021/12/13 02:24:43;;;;;;;358.83;64.57;;;;;;;;;;5072722;28;20670;-65
2021/12/13 02:27:12;;;;;;;362.30;64.95;;;;;;;;;;5072684;28;20209;-65
2021/12/13 02:29:42;;;;;;;362.20;65.10;;;;;;;;;;5072273;28;20242;-67
2021/12/13 02:32:11;;;;;;;363.55;65.28;;;;;;;;;;5072421;28;20208;-65
2021/12/13 02:34:41;;;;;;;367.80;66.28;;;;;;;;;;5072747;28;20211;-66
2021/12/13 02:37:09;;;;;;;361.75;65.38;;;;;;;;;;5066477;28;20204;-65
2021/12/13 02:39:38;;;;;;;363.75;63.80;;;;;;;;;;5072327;28;20261;-65
2021/12/13 02:42:10;;;;;;;362.00;64.70;;;;;;;;;;5072583;28;20242;-66
2021/12/13 02:44:43;;;;;;;368.25;65.15;;;;;;;;;;5072295;28;20669;-65
2021/12/13 02:47:22;;;;;;;371.33;65.60;;;;;;;;;;5072281;28;20692;-65
2021/12/13 02:49:49;;;;;;;376.90;69.50;;;;;;;;;;5072004;28;20228;-66
2021/12/13 02:52:18;;;;;;;376.08;65.70;;;;;;;;;;5072161;28;20729;-68
2021/12/13 02:54:47;;;;;;;364.17;63.83;;;;;;;;;;5071947;28;20300;-68
2021/12/13 02:57:17;;;;;;;366.83;65.82;;;;;;;;;;5072055;28;20220;-68
2021/12/13 02:59:48;;;;;;;377.63;65.88;;;;;;;;;;5071891;28;20216;-68
2021/12/13 03:02:18;;;;;;;360.05;64.22;;;;;;;;;;5071720;28;20350;-68
2021/12/13 03:04:46;;;;;;;363.95;65.22;;;;;;;;;;5071943;28;20240;-69
2021/12/13 03:07:15;;;;;;;362.45;65.70;;;;;;;;;;5071701;28;20600;-68
2021/12/13 03:09:46;;;;;;;365.80;64.55;;;;;;;;;;5071494;28;20720;-67
2021/12/13 03:12:17;;;;;;;373.60;65.60;;;;;;;;;;5072122;28;20333;-68
2021/12/13 03:14:47;;;;;;;367.67;64.88;;;;;;;;;;5071635;28;20219;-70
2021/12/13 03:17:17;;;;;;;359.63;63.80;;;;;;;;;;5072120;28;20701;-67
2021/12/13 03:19:49;;;;;;;373.85;71.05;;;;;;;;;;5071447;28;20673;-69
2021/12/13 03:22:23;;;;;;;364.10;65.13;;;;;;;;;;5071810;28;20211;-68
2021/12/13 03:25:01;;;;;;;369.67;64.57;;;;;;;;;;5065710;28;20620;-68
2021/12/13 03:27:47;;;;;;;365.65;63.60;;;;;;;;;;5072389;28;20232;-68
2021/12/13 03:30:16;;;;;;;372.35;66.55;;;;;;;;;;5071260;28;20319;-69
2021/12/13 03:32:46;;;;;;;365.08;65.78;;;;;;;;;;5071586;28;20299;-67
2021/12/13 03:35:16;;;;;;;371.45;66.60;;;;;;;;;;5071423;28;20223;-68
2021/12/13 03:37:44;;;;;;;362.10;62.63;;;;;;;;;;5071085;28;20661;-65
2021/12/13 03:40:13;;;;;;;364.05;65.50;;;;;;;;;;5071366;28;20210;-65
2021/12/13 03:42:43;;;;;;;370.55;66.03;;;;;;;;;;5071167;28;20213;-65
2021/12/13 03:45:13;;;;;;;361.95;63.55;;;;;;;;;;5071358;28;20215;-66
2021/12/13 03:47:44;;;;;;;358.00;62.33;;;;;;;;;;5070979;28;20208;-66
2021/12/13 03:50:13;;;;;;;369.33;64.47;;;;;;;;;;5071186;28;20243;-65
2021/12/13 03:52:43;;;;;;;366.73;65.35;;;;;;;;;;5071269;28;20299;-65
2021/12/13 03:55:11;;;;;;;368.05;65.13;;;;;;;;;;5071014;28;20620;-65
2021/12/13 03:57:44;;;;;;;377.25;66.97;;;;;;;;;;5070948;28;20303;-65
2021/12/13 04:00:14;;;;;;;374.98;67.95;;;;;;;;;;5071011;28;20204;-65
2021/12/13 04:02:43;;;;;;;363.42;65.30;;;;;;;;;;5071039;28;20228;-65
2021/12/13 04:05:14;;;;;;;367.73;65.22;;;;;;;;;;5070918;28;20213;-65
2021/12/13 04:07:44;;;;;;;362.90;64.55;;;;;;;;;;5070667;28;20201;-66
2021/12/13 04:10:13;;;;;;;368.52;64.80;;;;;;;;;;5070891;28;20615;-64
2021/12/13 04:12:46;;;;;;;363.15;64.82;;;;;;;;;;5071155;28;20600;-65
2021/12/13 04:15:18;;;;;;;363.42;64.70;;;;;;;;;;5071023;28;20679;-65
2021/12/13 04:18:01;;;;;;;370.85;66.35;;;;;;;;;;5064058;28;20258;-66
2021/12/13 04:20:30;;;;;;;373.48;67.30;;;;;;;;;;5070965;28;20218;-65
2021/12/13 04:23:03;;;;;;;369.05;65.15;;;;;;;;;;5070887;28;20570;-66
2021/12/13 04:25:33;;;;;;;365.88;64.50;;;;;;;;;;5063878;28;20239;-65
2021/12/13 04:28:04;;;;;;;373.27;66.13;;;;;;;;;;5063552;28;20216;-65
2021/12/13 04:30:35;;;;;;;372.00;65.50;;;;;;;;;;5070714;28;20660;-65
2021/12/13 04:33:05;;;;;;;370.13;66.60;;;;;;;;;;5070735;28;20287;-64
2021/12/13 04:35:33;;;;;;;374.75;65.30;;;;;;;;;;5070600;28;20291;-65
2021/12/13 04:38:03;;;;;;;376.58;64.97;;;;;;;;;;5070397;28;20209;-66
2021/12/13 04:40:32;;;;;;;376.98;66.45;;;;;;;;;;5070432;28;20680;-65
2021/12/13 04:43:01;;;;;;;375.65;65.50;;;;;;;;;;5070486;28;20208;-65
2021/12/13 04:45:29;;;;;;;367.13;64.95;;;;;;;;;;5070479;28;20204;-65
2021/12/13 04:48:03;;;;;;;380.45;70.35;;;;;;;;;;5070374;28;20594;-66
2021/12/13 04:50:32;;;;;;;366.17;66.35;;;;;;;;;;5070575;28;20224;-66
2021/12/13 04:53:00;;;;;;;363.80;64.57;;;;;;;;;;5070342;28;20299;-66
2021/12/13 04:55:29;;;;;;;365.23;65.22;;;;;;;;;;5070355;28;20240;-65
2021/12/13 04:57:58;;;;;;;377.90;70.55;;;;;;;;;;5070215;28;20304;-67
2021/12/13 05:00:27;;;;;;;374.20;65.72;;;;;;;;;;5064109;28;20224;-66
2021/12/13 05:02:58;;;;;;;367.42;67.03;;;;;;;;;;5070401;28;20745;-66
2021/12/13 05:05:28;;;;;;;366.33;65.72;;;;;;;;;;5070444;28;20201;-67
2021/12/13 05:07:56;;;;;;;372.40;68.15;;;;;;;;;;5070102;28;20295;-65
2021/12/13 05:10:25;;;;;;;370.08;67.50;;;;;;;;;;5070288;28;20694;-65
2021/12/13 05:13:00;;;;;;;364.48;63.97;;;;;;;;;;5070455;28;20670;-65
2021/12/13 05:15:29;;;;;;;364.95;64.63;;;;;;;;;;5071577;28;20231;-65
2021/12/13 05:17:57;;;;;;;379.80;71.72;;;;;;;;;;5070315;28;20287;-65
2021/12/13 05:20:27;;;;;;;362.38;64.95;;;;;;;;;;5070148;28;20212;-66
2021/12/13 05:22:57;;;;;;;369.33;66.57;;;;;;;;;;5070197;28;20291;-65
2021/12/13 05:25:28;;;;;;;366.20;65.05;;;;;;;;;;5070355;28;20207;-65
2021/12/13 05:28:04;;;;;;;371.85;70.10;;;;;;;;;;5069901;28;20669;-66
2021/12/13 05:30:31;;;;;;;370.77;65.80;;;;;;;;;;5070005;28;20715;-66
2021/12/13 05:33:01;;;;;;;374.50;66.47;;;;;;;;;;5069984;28;20286;-65
2021/12/13 05:35:29;;;;;;;374.55;65.07;;;;;;;;;;5069970;28;20212;-66
2021/12/13 05:38:00;;;;;;;376.30;69.75;;;;;;;;;;5072432;28;20645;-65
2021/12/13 05:40:33;;;;;;;370.83;65.50;;;;;;;;;;5073575;28;20216;-65
2021/12/13 05:43:02;;;;;;;375.02;65.38;;;;;;;;;;5066907;28;20231;-66
2021/12/13 05:45:34;;;;;;;370.83;65.70;;;;;;;;;;5073498;28;20201;-65
2021/12/13 05:48:03;;;;;;;367.35;65.50;;;;;;;;;;5073107;28;20274;-67
2021/12/13 05:50:34;;;;;;;372.00;67.28;;;;;;;;;;5073361;28;20254;-67
2021/12/13 05:53:05;;;;;;;363.55;63.97;;;;;;;;;;5073443;28;20211;-68
2021/12/13 05:55:32;;;;;;;369.45;65.15;;;;;;;;;;5073316;28;20208;-65
2021/12/13 05:57:59;;;;;;;374.70;64.88;;;;;;;;;;5073002;28;20214;-66
2021/12/13 06:00:29;;;;;;;367.27;64.22;;;;;;;;;;5073135;28;20212;-66
2021/12/13 06:03:07;;;;;;;374.33;67.38;;;;;;;;;;5073051;28;20677;-65
2021/12/13 06:05:36;;;;;;;374.27;67.70;;;;;;;;;;5073327;28;20227;-67
2021/12/13 06:08:07;;;;;;;380.20;67.82;;;;;;;;;;5073335;28;20667;-65
2021/12/13 06:10:41;;;;;;;388.00;69.85;;;;;;;;;;5073027;28;20240;-65
2021/12/13 06:13:11;;;;;;;378.45;67.50;;;;;;;;;;5073193;28;20213;-65
2021/12/13 06:15:40;;;;;;;372.10;67.35;;;;;;;;;;5072878;28;20346;-67
2021/12/13 06:18:19;;;;;;;376.83;66.35;;;;;;;;;;5072772;28;20215;-65
2021/12/13 06:20:50;;;;;;;368.27;65.63;;;;;;;;;;5072797;28;20208;-65
2021/12/13 06:23:21;;;;;;;369.48;65.53;;;;;;;;;;5072655;28;20209;-64
2021/12/13 06:25:49;;;;;;;381.67;71.53;;;;;;;;;;5072861;28;20216;-65
2021/12/13 06:28:21;;;;;;;376.60;69.07;;;;;;;;;;5072865;28;20229;-66
2021/12/13 06:30:53;;;;;;;371.55;67.63;;;;;;;;;;5066370;28;20232;-65
2021/12/13 06:33:21;;;;;;;376.92;67.50;;;;;;;;;;5066381;28;20205;-65
2021/12/13 06:35:50;;;;;;;370.90;69.55;;;;;;;;;;5065118;28;20240;-65
2021/12/13 06:38:39;;;;;;;375.98;66.30;;;;;;;;;;5072734;28;20239;-65
2021/12/13 06:41:08;;;;;;;367.38;65.18;;;;;;;;;;5066986;28;20208;-65
2021/12/13 06:43:37;;;;;;;365.73;65.35;;;;;;;;;;5072290;28;20232;-65
2021/12/13 06:46:06;;;;;;;375.00;67.47;;;;;;;;;;5065546;28;20204;-65
2021/12/13 06:48:35;;;;;;;366.92;66.03;;;;;;;;;;5072006;28;20204;-65
2021/12/13 06:51:02;;;;;;;374.95;66.57;;;;;;;;;;5072378;28;20228;-65
2021/12/13 06:53:30;;;;;;;365.48;63.75;;;;;;;;;;5072134;28;20220;-66
2021/12/13 06:55:59;;;;;;;375.75;69.57;;;;;;;;;;5072109;28;20211;-65
2021/12/13 06:58:29;;;;;;;369.42;65.50;;;;;;;;;;5071943;28;20212;-66
2021/12/13 07:00:59;;;;;;;366.65;64.28;;;;;;;;;;5071962;28;20271;-65
2021/12/13 07:03:32;;;;;;;371.10;65.90;;;;;;;;;;5072339;28;20201;-66
2021/12/13 07:06:00;;;;;;;375.35;66.15;;;;;;;;;;5073179;28;20286;-65
2021/12/13 07:08:30;;;;;;;369.25;66.65;;;;;;;;;;5071888;28;20227;-65
2021/12/13 07:11:01;;;;;;;367.55;65.22;;;;;;;;;;5071919;28;20361;-65
2021/12/13 07:13:30;;;;;;;370.65;65.97;;;;;;;;;;5072224;28;20721;-65
2021/12/13 07:15:59;;;;;;;373.13;65.03;;;;;;;;;;5065442;28;20698;-65
2021/12/13 07:18:30;;;;;;;369.73;64.72;;;;;;;;;;5071625;28;20711;-65
2021/12/13 07:21:04;;;;;;;375.55;64.88;;;;;;;;;;5071715;28;20208;-65
2021/12/13 07:23:51;;;;;;;367.15;64.53;;;;;;;;;;5071581;28;20228;-65
2021/12/13 07:26:30;;;;;;;366.40;65.07;;;;;;;;;;5066351;28;20217;-65
2021/12/13 07:28:58;;;;;;;376.15;66.28;;;;;;;;;;5071388;28;20666;-65
2021/12/13 07:31:26;;;;;;;371.95;65.47;;;;;;;;;;5071326;28;20323;-67
2021/12/13 07:33:53;;;;;;;368.95;66.93;;;;;;;;;;5071179;28;20218;-65
2021/12/13 07:36:24;;;;;;;367.95;64.40;;;;;;;;;;5071267;28;20208;-65
2021/12/13 07:38:52;;;;;;;365.27;64.55;;;;;;;;;;5071179;28;20220;-65
2021/12/13 07:41:21;;;;;;;365.63;64.78;;;;;;;;;;5071449;28;20212;-66
2021/12/13 07:43:49;;;;;;;374.45;69.93;;;;;;;;;;5070953;28;20670;-65
2021/12/13 07:46:27;;;;;;;372.35;66.00;;;;;;;;;;5071062;28;20214;-66
2021/12/13 07:48:56;;;;;;;371.00;66.45;;;;;;;;;;5071091;28;20228;-67
2021/12/13 07:51:25;;;;;;;375.85;65.68;;;;;;;;;;5071142;28;20263;-67
2021/12/13 07:53:54;;;;;;;383.65;70.40;;;;;;;;;;5070762;28;20666;-65
2021/12/13 07:56:23;;;;;;;371.95;65.32;;;;;;;;;;5070954;28;20215;-65
2021/12/13 07:58:54;;;;;;;376.30;65.90;;;;;;;;;;5070758;28;20208;-66
2021/12/13 08:01:24;;;;;;;370.67;65.72;;;;;;;;;;5070364;28;20228;-65
2021/12/13 08:03:54;;;;;;;377.80;71.85;;;;;;;;;;5070982;28;20700;-65
2021/12/13 08:06:21;;;;;;;375.63;68.72;;;;;;;;;;5070898;28;20204;-66
2021/12/13 08:08:51;;;;;;;376.55;67.00;;;;;;;;;;5071350;28;20689;-65
2021/12/13 08:11:19;;;;;;;373.50;66.15;;;;;;;;;;5064074;28;20736;-65
2021/12/13 08:13:59;;;;;;;379.15;66.30;;;;;;;;;;5070770;28;20208;-65
2021/12/13 08:16:31;;;;;;;379.35;66.97;;;;;;;;;;5064457;28;20214;-66
2021/12/13 08:19:05;;;;;;;384.90;68.43;;;;;;;;;;5070764;28;20208;-65
2021/12/13 08:21:37;;;;;;;377.73;65.85;;;;;;;;;;5070865;28;20658;-65
2021/12/13 08:24:05;;;;;;;381.15;67.05;;;;;;;;;;5063982;28;20258;-67
2021/12/13 08:26:34;;;;;;;386.67;67.50;;;;;;;;;;5070895;28;20204;-68
2021/12/13 08:29:05;;;;;;;376.95;65.50;;;;;;;;;;5070966;28;20208;-68
2021/12/13 08:31:35;;;;;;;380.67;66.07;;;;;;;;;;5070632;28;20729;-68
2021/12/13 08:34:06;;;;;;;379.70;65.88;;;;;;;;;;5070444;28;20238;-67
2021/12/13 08:36:34;;;;;;;379.45;66.65;;;;;;;;;;5070520;28;20243;-67
2021/12/13 08:39:06;;;;;;;378.25;65.95;;;;;;;;;;5070483;28;20212;-67
2021/12/13 08:41:36;;;;;;;370.98;64.63;;;;;;;;;;5070954;28;20240;-67
2021/12/13 08:44:15;;;;;;;380.48;66.60;;;;;;;;;;5070855;28;20232;-68
2021/12/13 08:46:44;;;;;;;377.63;66.45;;;;;;;;;;5070462;28;20700;-67
2021/12/13 08:49:17;;;;;;;378.70;67.35;;;;;;;;;;5070326;28;20208;-68
2021/12/13 08:51:51;;;;;;;380.38;67.10;;;;;;;;;;5070317;28;20620;-67
2021/12/13 08:54:18;;;;;;;380.73;66.22;;;;;;;;;;5071365;28;20685;-68
2021/12/13 08:56:47;;;;;;;382.42;67.82;;;;;;;;;;5071160;28;20208;-68
2021/12/13 08:59:23;;;;;;;388.02;68.25;;;;;;;;;;5070427;28;20574;-68
2021/12/13 09:01:52;;;;;;;389.75;72.25;;;;;;;;;;5069753;28;20700;-68
2021/12/13 09:04:25;;;;;;;382.73;66.88;;;;;;;;;;5070427;28;20227;-67
2021/12/13 09:06:54;;;;;;;382.77;66.93;;;;;;;;;;5070193;28;20205;-68
2021/12/13 09:09:22;;;;;;;388.60;70.35;;;;;;;;;;5070182;28;20291;-67
2021/12/13 09:11:56;;;;;;;391.48;71.38;;;;;;;;;;5065356;28;20234;-67
2021/12/13 09:14:25;;;;;;;389.95;67.32;;;;;;;;;;5074633;28;20660;-67
2021/12/13 09:17:06;;;;;;;391.90;67.47;;;;;;;;;;5074171;28;20204;-67
2021/12/13 09:19:38;;;;;;;389.63;67.43;;;;;;;;;;5074123;28;20799;-68
2021/12/13 09:22:09;;;;;;;376.50;65.65;;;;;;;;;;5067437;28;20592;-69
2021/12/13 09:24:39;;;;;;;389.83;68.32;;;;;;;;;;5067003;28;20209;-69
2021/12/13 09:27:08;;;;;;;382.77;66.45;;;;;;;;;;5073695;28;20211;-69
2021/12/13 09:29:48;;;;;;;378.27;66.18;;;;;;;;;;5073932;28;20596;-68
2021/12/13 09:32:16;;;;;;;376.60;66.03;;;;;;;;;;5073735;28;20239;-68
2021/12/13 09:34:45;;;;;;;378.98;66.07;;;;;;;;;;5073613;28;20293;-67
2021/12/13 09:37:13;;;;;;;381.63;66.78;;;;;;;;;;5074006;28;20200;-67
2021/12/13 09:39:41;;;;;;;387.90;65.88;;;;;;;;;;5073431;28;20208;-69
2021/12/13 09:42:12;;;;;;;381.35;67.72;;;;;;;;;;5073650;28;20212;-68
2021/12/13 09:44:44;;;;;;;387.40;68.15;;;;;;;;;;5073392;28;20561;-66
2021/12/13 09:47:14;;;;;;;378.50;67.13;;;;;;;;;;5073470;28;20205;-67
2021/12/13 09:49:44;;;;;;;382.10;67.40;;;;;;;;;;5073154;28;20209;-67
2021/12/13 09:52:13;;;;;;;382.50;65.85;;;;;;;;;;5073253;28;20281;-67
2021/12/13 09:54:42;;;;;;;384.10;65.65;;;;;;;;;;5073326;28;20592;-67
2021/12/13 09:57:11;;;;;;;383.20;67.13;;;;;;;;;;5073329;28;20232;-67
2021/12/13 09:59:41;;;;;;;380.17;66.20;;;;;;;;;;5072945;28;20220;-67
2021/12/13 10:02:12;;;;;;;378.98;66.85;;;;;;;;;;5072807;28;20232;-67
2021/12/13 10:04:42;;;;;;;380.30;66.90;;;;;;;;;;5066636;28;20208;-66
2021/12/13 10:07:10;;;;;;;383.23;66.78;;;;;;;;;;5073304;28;20216;-66
2021/12/13 10:09:39;;;;;;;381.88;65.22;;;;;;;;;;5073177;28;20228;-66
2021/12/13 10:12:08;;;;;;;393.05;68.18;;;;;;;;;;5072986;28;20255;-67
2021/12/13 10:14:37;;;;;;;383.20;66.82;;;;;;;;;;5072860;28;20216;-67
2021/12/13 10:17:07;;;;;;;386.58;67.07;;;;;;;;;;5073266;28;20207;-67
2021/12/13 10:19:36;;;;;;;379.75;65.75;;;;;;;;;;5072832;28;20678;-66
2021/12/13 10:22:06;;;;;;;381.00;66.50;;;;;;;;;;5072549;28;20299;-66
2021/12/13 10:24:37;;;;;;;387.90;66.85;;;;;;;;;;5072291;28;20208;-66
2021/12/13 10:27:06;;;;;;;386.05;68.35;;;;;;;;;;5072898;28;20240;-67
2021/12/13 10:29:34;;;;;;;382.00;65.57;;;;;;;;;;5072964;28;20583;-67
2021/12/13 10:32:03;;;;;;;379.88;66.97;;;;;;;;;;5072534;28;20268;-67
2021/12/13 10:34:33;;;;;;;385.02;65.50;;;;;;;;;;5065975;28;20204;-68
2021/12/13 10:37:02;;;;;;;388.65;66.30;;;;;;;;;;5072598;28;20216;-67
2021/12/13 10:39:33;;;;;;;390.05;67.60;;;;;;;;;;5072329;28;20211;-66
2021/12/13 10:42:06;;;;;;;390.98;68.78;;;;;;;;;;5072212;28;20223;-67
2021/12/13 10:44:33;;;;;;;388.80;67.35;;;;;;;;;;5074338;28;20224;-67
2021/12/13 10:47:04;;;;;;;393.20;68.10;;;;;;;;;;5073140;28;20204;-67
2021/12/13 10:49:32;;;;;;;390.95;67.50;;;;;;;;;;5072248;28;20740;-67
2021/12/13 10:52:01;;;;;;;389.83;68.57;;;;;;;;;;5071921;28;20604;-67
2021/12/13 10:54:32;;;;;;;387.13;68.30;;;;;;;;;;5072421;28;20300;-67
2021/12/13 10:57:00;;;;;;;395.20;68.88;;;;;;;;;;5072158;28;20216;-67
2021/12/13 10:59:29;;;;;;;388.58;68.38;;;;;;;;;;5072108;28;20581;-67
2021/12/13 11:01:58;;;;;;;392.55;72.43;;;;;;;;;;5071356;28;20615;-69
2021/12/13 11:04:27;;;;;;;395.63;70.45;;;;;;;;;;5071941;28;20213;-70
2021/12/13 11:06:55;;;;;;;393.42;67.63;;;;;;;;;;5065617;28;20296;-66
2021/12/13 11:09:24;;;;;;;397.30;69.55;;;;;;;;;;5071484;28;20211;-67
2021/12/13 11:11:57;;;;;;;395.40;72.45;;;;;;;;;;5071561;28;20224;-67
2021/12/13 11:14:26;;;;;;;388.80;67.22;;;;;;;;;;5071931;28;20665;-66
2021/12/13 11:16:55;;;;;;;406.27;70.43;;;;;;;;;;5071662;28;20208;-66
2021/12/13 11:19:24;;;;;;;394.45;68.68;;;;;;;;;;5071836;28;20563;-66
2021/12/13 11:21:53;;;;;;;393.80;73.07;;;;;;;;;;5071540;28;20737;-67
2021/12/13 11:24:25;;;;;;;396.35;68.18;;;;;;;;;;5071633;28;20208;-68
2021/12/13 11:26:56;;;;;;;393.08;68.70;;;;;;;;;;5071476;28;20215;-66
2021/12/13 11:29:24;;;;;;;394.40;68.95;;;;;;;;;;5071439;28;20215;-66
2021/12/13 11:32:09;;;;;;;394.50;72.63;;;;;;;;;;5071306;28;20243;-67
2021/12/13 11:34:48;;;;;;;383.73;67.68;;;;;;;;;;5071355;28;20246;-67
2021/12/13 11:37:39;;;;;;;393.75;69.03;;;;;;;;;;5071539;28;20286;-66
2021/12/13 11:40:34;;;;;;;389.15;68.15;;;;;;;;;;5054401;28;20215;-67
2021/12/13 11:43:29;;;;;;;396.48;69.43;;;;;;;;;;5067515;28;20665;-66
2021/12/13 11:46:11;;;;;;;398.15;72.85;;;;;;;;;;5046525;28;20211;-68
2021/12/13 11:49:04;;;;;;;395.33;68.05;;;;;;;;;;5071175;28;20262;-67
2021/12/13 11:51:46;;;;;;;393.48;69.07;;;;;;;;;;5071024;28;20202;-67
2021/12/13 11:54:44;;;;;;;394.40;69.30;;;;;;;;;;5071058;28;20296;-67
2021/12/13 11:57:29;;;;;;;392.25;68.05;;;;;;;;;;5064952;28;20288;-67
2021/12/13 12:00:02;;;;;;;388.30;69.07;;;;;;;;;;5070774;28;20217;-67
2021/12/13 12:02:36;;;;;;;386.70;67.75;;;;;;;;;;5070803;28;20228;-66
2021/12/13 12:05:22;;;;;;;407.90;69.50;;;;;;;;;;5071283;28;20251;-67
2021/12/13 12:08:26;;;;;;;398.60;72.75;;;;;;;;;;5070795;28;20212;-66
2021/12/13 12:11:24;;;;;;;391.80;68.38;;;;;;;;;;5064925;28;20273;-67
2021/12/13 12:14:03;;;;;;;394.65;72.15;;;;;;;;;;5026429;28;20292;-67
2021/12/13 12:16:31;;;;;;;389.42;67.45;;;;;;;;;;5064467;28;20689;-67
2021/12/13 12:18:59;;;;;;;395.98;69.10;;;;;;;;;;5071092;28;20315;-67
2021/12/13 12:21:42;;;;;;;401.55;71.95;;;;;;;;;;5070782;28;20269;-68
2021/12/13 12:24:10;;;;;;;391.58;67.30;;;;;;;;;;5069433;28;20671;-66
2021/12/13 12:26:39;;;;;;;398.30;69.88;;;;;;;;;;5070666;28;20208;-67
2021/12/13 12:29:12;;;;;;;404.45;71.88;;;;;;;;;;5070884;28;20232;-68
2021/12/13 12:31:41;;;;;;;389.17;68.70;;;;;;;;;;5070232;28;20669;-68
2021/12/13 12:34:11;;;;;;;398.40;70.20;;;;;;;;;;5071673;28;20215;-67
2021/12/13 12:36:40;;;;;;;393.02;68.55;;;;;;;;;;5071106;28;20208;-67
2021/12/13 12:39:23;;;;;;;391.15;68.70;;;;;;;;;;5070466;28;20208;-67
2021/12/13 12:42:01;;;;;;;401.38;74.72;;;;;;;;;;5070411;28;20204;-67
2021/12/13 12:44:32;;;;;;;393.13;68.60;;;;;;;;;;5070478;28;20216;-66
2021/12/13 12:47:00;;;;;;;391.55;70.22;;;;;;;;;;5073475;28;20211;-67
2021/12/13 12:49:29;;;;;;;393.80;70.10;;;;;;;;;;5074581;28;20215;-67
2021/12/13 12:52:02;;;;;;;397.00;72.78;;;;;;;;;;5074641;28;20231;-67
2021/12/13 12:54:30;;;;;;;387.15;67.85;;;;;;;;;;5074637;28;20211;-67
2021/12/13 12:56:59;;;;;;;389.50;68.10;;;;;;;;;;5074267;28;20657;-67
2021/12/13 12:59:27;;;;;;;387.80;67.47;;;;;;;;;;5074759;28;20270;-68
2021/12/13 13:01:58;;;;;;;403.27;74.60;;;;;;;;;;5067207;28;20264;-67
2021/12/13 13:04:28;;;;;;;391.33;68.90;;;;;;;;;;5074846;28;20221;-69
2021/12/13 13:06:59;;;;;;;394.08;69.43;;;;;;;;;;5074178;28;20743;-66
2021/12/13 13:09:35;;;;;;;397.48;72.03;;;;;;;;;;5074020;28;20208;-67
2021/12/13 13:12:03;;;;;;;385.00;67.10;;;;;;;;;;5074061;28;20226;-67
2021/12/13 13:14:32;;;;;;;394.73;68.65;;;;;;;;;;5074103;28;20291;-67
2021/12/13 13:17:01;;;;;;;394.45;69.55;;;;;;;;;;5074029;28;20212;-67
2021/12/13 13:19:31;;;;;;;393.42;68.20;;;;;;;;;;5074278;28;20209;-67
2021/12/13 13:22:02;;;;;;;395.05;69.10;;;;;;;;;;5073518;28;20296;-67
2021/12/13 13:24:29;;;;;;;393.67;68.65;;;;;;;;;;5074187;28;20204;-66
2021/12/13 13:26:57;;;;;;;394.48;68.85;;;;;;;;;;5073782;28;20207;-67
2021/12/13 13:29:25;;;;;;;392.52;67.75;;;;;;;;;;5073824;28;20217;-67
2021/12/13 13:31:55;;;;;;;400.73;73.35;;;;;;;;;;5073574;28;20262;-67
2021/12/13 13:34:24;;;;;;;396.80;69.40;;;;;;;;;;5067253;28;20206;-67
2021/12/13 13:36:53;;;;;;;386.33;67.20;;;;;;;;;;5073601;28;20204;-67
2021/12/13 13:39:25;;;;;;;393.05;67.32;;;;;;;;;;5073484;28;20204;-69
2021/12/13 13:41:54;;;;;;;390.00;71.40;;;;;;;;;;5073416;28;20211;-67
2021/12/13 13:44:24;;;;;;;390.95;67.55;;;;;;;;;;5073420;28;20295;-67
2021/12/13 13:47:00;;;;;;;386.17;66.95;;;;;;;;;;5073404;28;20251;-68
2021/12/13 13:49:28;;;;;;;389.98;69.00;;;;;;;;;;5073431;28;20206;-67
2021/12/13 13:51:55;;;;;;;394.70;72.55;;;;;;;;;;5073185;28;20211;-66
2021/12/13 13:54:29;;;;;;;397.77;69.93;;;;;;;;;;5073460;28;20213;-67
2021/12/13 13:56:57;;;;;;;389.52;68.45;;;;;;;;;;5072747;28;20208;-68
2021/12/13 13:59:26;;;;;;;393.58;69.30;;;;;;;;;;5072510;28;20205;-67
2021/12/13 14:01:57;;;;;;;404.00;75.13;;;;;;;;;;5072821;28;20225;-67
2021/12/13 14:04:27;;;;;;;387.73;68.40;;;;;;;;;;5073324;28;20204;-67
2021/12/13 14:06:55;;;;;;;392.73;67.57;;;;;;;;;;5073298;28;20699;-67
2021/12/13 14:09:25;;;;;;;388.30;67.97;;;;;;;;;;5066390;28;20204;-66
2021/12/13 14:11:54;;;;;;;394.38;72.82;;;;;;;;;;5072792;28;20212;-67
2021/12/13 14:14:23;;;;;;;388.77;68.05;;;;;;;;;;5072903;28;20228;-67
2021/12/13 14:16:52;;;;;;;386.85;68.25;;;;;;;;;;5073209;28;20236;-67
2021/12/13 14:19:26;;;;;;;393.13;68.50;;;;;;;;;;5072777;28;20240;-66
2021/12/13 14:21:54;;;;;;;399.13;74.13;;;;;;;;;;5072893;28;20208;-67
2021/12/13 14:24:30;;;;;;;390.00;67.47;;;;;;;;;;5073789;28;20622;-67
2021/12/13 14:27:12;;;;;;;391.73;69.07;;;;;;;;;;5073184;28;20215;-66
2021/12/13 14:29:39;;;;;;;393.33;68.88;;;;;;;;;;5072517;28;20200;-67